x

Columbia River Bar - 20nm West Of Columbia River Mouth (46029) Wave Buoy

9:50 - Mon 8th Feb 2016 All times are PST. -8 hours from GMT.

  • Sig Wave height 10.5ft
  • Swell Direction
  • Peak Period 17s
  • Average Period 10s
  • Wind
    13mph, 18mph gusts
  • Sea Temp 52°f
  • Luft Temp 54°f
  • Sea Pressure 1027.1mb
  • Columbia River Bar - 20nm West Of Columbia River Mouth
  • Columbia River Bar - 20nm West Of Columbia River Mouth

More Historic Weather Station data

Upgrade to MSW Pro to gain access to the past 30 days of data for over 8000 Wavebouys and Weather Stations around the globe.

Join Pro

Comparision Forecast

View Surf forecast
   
Mo 02/08 9:50 10.5ft 17s 10s 13 18 mph 1027.1mb 52f 54f
8:50 9ft 16s 9s 16 20 mph 1027mb 52f 54f
7:50 10ft 16s 9s 13 20 mph 1027.3mb 52f 53f
6:50 11ft 17s 11s 13 20 mph 1027.3mb 52f 52f
5:50 10ft 16s 10s 13 18 mph 1027.4mb 51f 53f
4:50 8ft 17s 9s 13 16 mph 1027.4mb 51f 53f
3:50 7.5ft 17s 9s 11 16 mph 1027.5mb 51f 53f
2:50 6ft 17s 9s 9 13 mph 1028.1mb 51f 53f
1:50 5.5ft 19s 8s 11 13 mph 1028.5mb 51f 53f
12:50 5ft 13s 8s 9 13 mph 1028.9mb 51f 53f
So 02/07 11:50 5ft 14s 8s 4 7 mph 1029.2mb 51f 53f
10:50 5ft 12s 8s 7 9 mph 1029mb 51f 53f
9:50 5ft 11s 8s 9 13 mph 1029mb 52f 54f
8:50 6ft 11s 9s 9 11 mph 1029.4mb 52f 54f
7:50 6ft 11s 9s 7 9 mph 1029.9mb 52f 53f
6:50 6ft 12s 9s 7 9 mph 1030.2mb 52f 54f
5:50 6ft 11s 9s 4 7 mph 1030.5mb 52f 53f
4:50 7ft 11s 9s 7 9 mph 1031.1mb 52f 53f
3:50 6ft 11s 8s 7 11 mph 1031.1mb 52f 54f
2:50 5ft 11s 7s 7 11 mph 1030.8mb 52f 53f
1:50 6ft 12s 8s 7 11 mph 1031.3mb 52f 53f
12:50 5.5ft 12s 7s 9 11 mph 1031.7mb 52f 52f
11:50 6ft 13s 8s 7 9 mph 1032mb 52f 51f
10:50 5ft 12s 7s 11 13 mph 1031.2mb 51f 51f
9:50 6ft 14s 7s 13 18 mph 1031.4mb 51f 49f
8:50 6.5ft 14s 7s 13 16 mph 1031.5mb 51f 49f
7:50 6ft 13s 7s 16 18 mph 1030.9mb 51f 49f
6:50 7ft 14s 8s 13 18 mph 1031.3mb 51f 49f
5:50 8ft 14s 8s 9 13 mph 1031.4mb 51f 48f
4:50 8ft 13s 8s 11 13 mph 1031.1mb 51f 49f
3:50 9ft 11s 9s 13 18 mph 1030.4mb 51f 49f
2:50 9ft 11s 9s 13 16 mph 1030.4mb 51f 49f
1:50 9ft 11s 9s 13 18 mph 1030.3mb 51f 49f
12:50 9ft 12s 9s 11 16 mph 1030.4mb 51f 49f
Sa 02/06 11:50 9ft 12s 9s 11 16 mph 1030.4mb 51f 49f
10:50 8.5ft 11s 8s 11 16 mph 1030.2mb 51f 50f
9:50 10ft 12s 9s 11 16 mph 1029.8mb 51f 50f
8:50 9.5ft 12s 9s 13 18 mph 1029.6mb 51f 49f
7:50 9ft 12s 9s 11 16 mph 1030.1mb 51f 50f
6:50 10ft 13s 9s 11 16 mph 1029.9mb 51f 50f
5:50 10ft 13s 9s 7 11 mph 1030.7mb 51f 50f
4:50 9ft 12s 8s 7 11 mph 1030.3mb 52f 50f
3:50 10.5ft 14s 9s 4 9 mph 1030.1mb 52f 50f
2:50 10.5ft 14s 8s 4 7 mph 1030.5mb 52f 51f
1:50 11ft 14s 8s 7 11 mph 1030.4mb 52f 51f
12:50 11ft 13s 8s 7 11 mph 1031mb 51f 51f
11:50 11ft 13s 8s 2 7 mph 1031.2mb 51f 51f
10:50 13ft 12s 9s  -  7 mph 1031.8mb 51f 50f
9:50 15ft 12s 9s 2 7 mph 1031.3mb 51f 50f
8:50 14ft 13s 9s 2 7 mph 1030.9mb 51f 50f
7:50 13ft 12s 8s 7 11 mph 1030.5mb 51f 50f
6:50 14ft 13s 9s 11 16 mph 1030.5mb 51f 50f
5:50 14ft 13s 9s 11 18 mph 1030.4mb 51f 49f
4:50 15ft 13s 9s 13 18 mph 1029.8mb 52f 50f
3:50 14.5ft 14s 8s 18 22 mph 1028.8mb 52f 50f
2:50 16ft 14s 9s 13 20 mph 1028.7mb 52f 50f
1:50 15ft 14s 9s 16 22 mph 1027.7mb 52f 50f
12:50 14ft 12s 8s 18 22 mph 1026.7mb 52f 50f
Fr 02/05 11:50 14ft 11s 8s 18 22 mph 1026.1mb 52f 50f
10:50 14.5ft 11s 8s 18 22 mph 1025.4mb 52f 51f
9:50 15ft 15s 9s 16 20 mph 1024.8mb 52f 49f
8:50 16ft 15s 9s 18 25 mph 1023.9mb 52f 51f
7:50 17.5ft 15s 9s 18 22 mph 1023.8mb 52f 50f
6:50 19.5ft 13s 9s 25 31 mph 1022.5mb 52f 51f
5:50 19ft 14s 9s 22 34 mph 1020.4mb 52f 51f
4:50 21.5ft 14s 9s 20 27 mph 1018.6mb 52f 52f
3:50 21ft 14s 9s 18 25 mph 1017.9mb 52f 52f
2:50 20.5ft 14s 9s 29 38 mph 1016.1mb 52f 52f
1:50 21.5ft 14s 9s 34 45 mph 1016.1mb 52f 53f
12:50 18.5ft 14s 9s 34 45 mph 1017.5mb 52f 53f
11:50 17.5ft 15s 9s 31 38 mph 1018mb 52f 53f
10:50 17.5ft 14s 9s 31 34 mph 1018.3mb 52f 53f
9:50 15ft 14s 8s 29 38 mph 1019mb 52f 53f
8:50 14.5ft 14s 8s 29 34 mph 1019.4mb 52f 53f
7:50 13.5ft 15s 8s 27 31 mph 1020.2mb 52f 53f
6:50 13.5ft 16s 8s 27 31 mph 1020.9mb 52f 53f
5:50 13ft 16s 8s 27 31 mph 1021.5mb 52f 53f
4:50 12ft 16s 8s 25 29 mph 1022.8mb 52f 53f
3:50 12ft 16s 9s 20 25 mph 1023.4mb 52f 52f
2:50 13ft 16s 9s 18 22 mph 1023.9mb 52f 52f
1:50 12.5ft 16s 9s 13 16 mph 1024.1mb 52f 53f
12:50 14ft 15s 10s 13 18 mph 1024.4mb 52f 52f
Do 02/04 11:50 15ft 14s 10s 13 18 mph 1025mb 52f 53f
10:50 15ft 14s 10s 16 20 mph 1025.3mb 51f 52f
9:50 16.5ft 15s 10s 18 25 mph 1025.6mb 51f 52f
8:50 14.5ft 14s 9s 20 25 mph 1026.1mb 51f 52f
7:50 16.5ft 15s 10s 22 29 mph 1026.2mb 51f 52f